sensor_id;sensor_type;location;lat;lon;timestamp;temperature;humidity
11908;DHT22;6014;47.690;9.130;2022-10-16T00:01:45;12.40;99.90
11908;DHT22;6014;47.690;9.130;2022-10-16T00:04:14;12.40;99.90
11908;DHT22;6014;47.690;9.130;2022-10-16T00:06:42;12.40;99.90
11908;DHT22;6014;47.690;9.130;2022-10-16T00:09:10;12.40;99.90
11908;DHT22;6014;47.690;9.130;2022-10-16T00:11:40;12.40;99.90
11908;DHT22;6014;47.690;9.130;2022-10-16T00:14:11;12.40;99.90
11908;DHT22;6014;47.690;9.130;2022-10-16T00:16:42;12.50;99.90
11908;DHT22;6014;47.690;9.130;2022-10-16T00:19:12;12.50;99.90
11908;DHT22;6014;47.690;9.130;2022-10-16T00:21:40;12.50;99.90
11908;DHT22;6014;47.690;9.130;2022-10-16T00:24:09;12.60;99.90
11908;DHT22;6014;47.690;9.130;2022-10-16T00:26:39;12.60;99.90
11908;DHT22;6014;47.690;9.130;2022-10-16T00:29:07;12.60;99.90
11908;DHT22;6014;47.690;9.130;2022-10-16T00:31:36;12.50;99.90
11908;DHT22;6014;47.690;9.130;2022-10-16T00:34:06;12.40;99.90
11908;DHT22;6014;47.690;9.130;2022-10-16T00:36:36;12.40;99.90
11908;DHT22;6014;47.690;9.130;2022-10-16T00:39:04;12.40;99.90
11908;DHT22;6014;47.690;9.130;2022-10-16T00:41:33;12.40;99.90
11908;DHT22;6014;47.690;9.130;2022-10-16T00:44:03;12.50;99.90
11908;DHT22;6014;47.690;9.130;2022-10-16T00:46:52;12.50;99.90
11908;DHT22;6014;47.690;9.130;2022-10-16T00:49:20;12.50;99.90
11908;DHT22;6014;47.690;9.130;2022-10-16T00:51:53;12.50;99.90
11908;DHT22;6014;47.690;9.130;2022-10-16T00:54:23;12.60;99.90
11908;DHT22;6014;47.690;9.130;2022-10-16T00:56:53;12.50;99.90
11908;DHT22;6014;47.690;9.130;2022-10-16T00:59:25;12.50;99.90
11908;DHT22;6014;47.690;9.130;2022-10-16T01:01:57;12.50;99.90
11908;DHT22;6014;47.690;9.130;2022-10-16T01:04:37;12.60;99.90
11908;DHT22;6014;47.690;9.130;2022-10-16T01:07:14;12.60;99.90
11908;DHT22;6014;47.690;9.130;2022-10-16T01:10:06;12.60;99.90
11908;DHT22;6014;47.690;9.130;2022-10-16T01:12:41;12.70;99.90
11908;DHT22;6014;47.690;9.130;2022-10-16T01:15:18;12.70;99.90
11908;DHT22;6014;47.690;9.130;2022-10-16T01:17:58;12.70;99.90
11908;DHT22;6014;47.690;9.130;2022-10-16T01:20:31;12.60;99.90
11908;DHT22;6014;47.690;9.130;2022-10-16T01:23:21;12.70;99.90
11908;DHT22;6014;47.690;9.130;2022-10-16T01:26:12;12.60;99.90
11908;DHT22;6014;47.690;9.130;2022-10-16T01:28:47;12.70;99.90
11908;DHT22;6014;47.690;9.130;2022-10-16T01:31:22;12.70;99.90
11908;DHT22;6014;47.690;9.130;2022-10-16T01:33:57;12.70;99.90
11908;DHT22;6014;47.690;9.130;2022-10-16T01:36:35;12.70;99.90
11908;DHT22;6014;47.690;9.130;2022-10-16T01:39:09;12.70;99.90
11908;DHT22;6014;47.690;9.130;2022-10-16T01:41:43;12.70;99.90
11908;DHT22;6014;47.690;9.130;2022-10-16T01:44:18;12.60;99.90
11908;DHT22;6014;47.690;9.130;2022-10-16T01:46:50;12.70;99.90
11908;DHT22;6014;47.690;9.130;2022-10-16T01:49:21;12.70;99.90
11908;DHT22;6014;47.690;9.130;2022-10-16T01:51:54;12.80;99.90
11908;DHT22;6014;47.690;9.130;2022-10-16T01:54:28;12.80;99.90
11908;DHT22;6014;47.690;9.130;2022-10-16T01:56:58;12.80;99.90
11908;DHT22;6014;47.690;9.130;2022-10-16T01:59:31;12.80;99.90
11908;DHT22;6014;47.690;9.130;2022-10-16T02:02:06;12.90;99.90
11908;DHT22;6014;47.690;9.130;2022-10-16T02:04:38;12.90;99.90
11908;DHT22;6014;47.690;9.130;2022-10-16T02:07:07;12.90;99.90
11908;DHT22;6014;47.690;9.130;2022-10-16T02:09:36;12.90;99.90
11908;DHT22;6014;47.690;9.130;2022-10-16T02:12:10;12.90;99.90
11908;DHT22;6014;47.690;9.130;2022-10-16T02:14:42;12.90;99.90
11908;DHT22;6014;47.690;9.130;2022-10-16T02:17:12;12.80;99.90
11908;DHT22;6014;47.690;9.130;2022-10-16T02:19:44;12.80;99.90
11908;DHT22;6014;47.690;9.130;2022-10-16T02:22:17;12.80;99.90
11908;DHT22;6014;47.690;9.130;2022-10-16T02:24:54;12.80;99.90
11908;DHT22;6014;47.690;9.130;2022-10-16T02:27:27;12.80;99.90
11908;DHT22;6014;47.690;9.130;2022-10-16T02:30:04;12.80;99.90
11908;DHT22;6014;47.690;9.130;2022-10-16T02:32:39;12.80;99.90
11908;DHT22;6014;47.690;9.130;2022-10-16T02:35:10;12.90;99.90
11908;DHT22;6014;47.690;9.130;2022-10-16T02:37:39;12.80;99.90
11908;DHT22;6014;47.690;9.130;2022-10-16T02:40:09;12.80;99.90
11908;DHT22;6014;47.690;9.130;2022-10-16T02:42:39;12.90;99.90
11908;DHT22;6014;47.690;9.130;2022-10-16T02:45:11;13.00;99.90
11908;DHT22;6014;47.690;9.130;2022-10-16T02:47:39;13.00;99.90
11908;DHT22;6014;47.690;9.130;2022-10-16T02:50:08;12.90;99.90
11908;DHT22;6014;47.690;9.130;2022-10-16T02:52:36;12.80;99.90
11908;DHT22;6014;47.690;9.130;2022-10-16T02:55:05;12.90;99.90
11908;DHT22;6014;47.690;9.130;2022-10-16T02:57:34;12.90;99.90
11908;DHT22;6014;47.690;9.130;2022-10-16T03:00:04;13.00;99.90
11908;DHT22;6014;47.690;9.130;2022-10-16T03:02:35;13.00;99.90
11908;DHT22;6014;47.690;9.130;2022-10-16T03:05:04;12.90;99.90
11908;DHT22;6014;47.690;9.130;2022-10-16T03:07:33;13.00;99.90
11908;DHT22;6014;47.690;9.130;2022-10-16T03:10:01;13.00;99.90
11908;DHT22;6014;47.690;9.130;2022-10-16T03:12:30;13.00;99.90
11908;DHT22;6014;47.690;9.130;2022-10-16T03:14:59;12.90;99.90
11908;DHT22;6014;47.690;9.130;2022-10-16T03:17:27;12.90;99.90
11908;DHT22;6014;47.690;9.130;2022-10-16T03:19:57;12.80;99.90
11908;DHT22;6014;47.690;9.130;2022-10-16T03:22:25;12.80;99.90
11908;DHT22;6014;47.690;9.130;2022-10-16T03:24:53;12.80;99.90
11908;DHT22;6014;47.690;9.130;2022-10-16T03:27:22;12.90;99.90
11908;DHT22;6014;47.690;9.130;2022-10-16T03:29:51;12.90;99.90
11908;DHT22;6014;47.690;9.130;2022-10-16T03:32:19;13.00;99.90
11908;DHT22;6014;47.690;9.130;2022-10-16T03:34:48;13.10;99.90
11908;DHT22;6014;47.690;9.130;2022-10-16T03:37:18;13.10;99.90
11908;DHT22;6014;47.690;9.130;2022-10-16T03:39:46;13.10;99.90
11908;DHT22;6014;47.690;9.130;2022-10-16T03:42:14;13.00;99.90
11908;DHT22;6014;47.690;9.130;2022-10-16T03:44:43;13.00;99.90
11908;DHT22;6014;47.690;9.130;2022-10-16T03:47:11;13.10;99.90
11908;DHT22;6014;47.690;9.130;2022-10-16T03:49:41;13.10;99.90
11908;DHT22;6014;47.690;9.130;2022-10-16T03:52:09;13.00;99.90
11908;DHT22;6014;47.690;9.130;2022-10-16T03:54:39;13.10;99.90
11908;DHT22;6014;47.690;9.130;2022-10-16T03:57:07;13.10;99.90
11908;DHT22;6014;47.690;9.130;2022-10-16T03:59:36;13.20;99.90
11908;DHT22;6014;47.690;9.130;2022-10-16T04:02:04;13.20;99.90
11908;DHT22;6014;47.690;9.130;2022-10-16T04:04:32;13.20;99.90
11908;DHT22;6014;47.690;9.130;2022-10-16T04:07:01;13.30;99.90
11908;DHT22;6014;47.690;9.130;2022-10-16T04:09:29;13.30;99.90
11908;DHT22;6014;47.690;9.130;2022-10-16T04:12:00;13.30;99.90
11908;DHT22;6014;47.690;9.130;2022-10-16T04:14:28;13.40;99.90
11908;DHT22;6014;47.690;9.130;2022-10-16T04:16:56;13.40;99.90
11908;DHT22;6014;47.690;9.130;2022-10-16T04:19:25;13.40;99.90
11908;DHT22;6014;47.690;9.130;2022-10-16T04:21:53;13.40;99.90
11908;DHT22;6014;47.690;9.130;2022-10-16T04:24:22;13.40;99.90
11908;DHT22;6014;47.690;9.130;2022-10-16T04:26:50;13.40;99.90
11908;DHT22;6014;47.690;9.130;2022-10-16T04:29:20;13.50;99.90
11908;DHT22;6014;47.690;9.130;2022-10-16T04:31:48;13.50;99.90
11908;DHT22;6014;47.690;9.130;2022-10-16T04:34:16;13.40;99.90
11908;DHT22;6014;47.690;9.130;2022-10-16T04:36:47;13.40;99.90
11908;DHT22;6014;47.690;9.130;2022-10-16T04:39:16;13.30;99.90
11908;DHT22;6014;47.690;9.130;2022-10-16T04:41:44;13.30;99.90
11908;DHT22;6014;47.690;9.130;2022-10-16T04:44:13;13.30;99.90
11908;DHT22;6014;47.690;9.130;2022-10-16T04:46:42;13.40;99.90
11908;DHT22;6014;47.690;9.130;2022-10-16T04:49:11;13.40;99.90
11908;DHT22;6014;47.690;9.130;2022-10-16T04:51:40;13.50;99.90
11908;DHT22;6014;47.690;9.130;2022-10-16T04:54:08;13.50;99.90
11908;DHT22;6014;47.690;9.130;2022-10-16T04:56:37;13.60;99.90
11908;DHT22;6014;47.690;9.130;2022-10-16T04:59:13;13.50;99.90
11908;DHT22;6014;47.690;9.130;2022-10-16T05:01:43;13.50;99.90
11908;DHT22;6014;47.690;9.130;2022-10-16T05:04:12;13.50;99.90
11908;DHT22;6014;47.690;9.130;2022-10-16T05:06:42;13.60;99.90
11908;DHT22;6014;47.690;9.130;2022-10-16T05:09:10;13.60;99.90
11908;DHT22;6014;47.690;9.130;2022-10-16T05:11:39;13.50;99.90
11908;DHT22;6014;47.690;9.130;2022-10-16T05:14:07;13.50;99.90
11908;DHT22;6014;47.690;9.130;2022-10-16T05:16:40;13.50;99.90
11908;DHT22;6014;47.690;9.130;2022-10-16T05:19:10;13.50;99.90
11908;DHT22;6014;47.690;9.130;2022-10-16T05:21:53;13.40;99.90
11908;DHT22;6014;47.690;9.130;2022-10-16T05:24:21;13.40;99.90
11908;DHT22;6014;47.690;9.130;2022-10-16T05:26:50;13.40;99.90
11908;DHT22;6014;47.690;9.130;2022-10-16T05:29:20;13.50;99.90
11908;DHT22;6014;47.690;9.130;2022-10-16T05:31:50;13.40;99.90
11908;DHT22;6014;47.690;9.130;2022-10-16T05:34:21;13.30;99.90
11908;DHT22;6014;47.690;9.130;2022-10-16T05:36:49;13.30;99.90
11908;DHT22;6014;47.690;9.130;2022-10-16T05:39:18;13.20;99.90
11908;DHT22;6014;47.690;9.130;2022-10-16T05:41:46;13.20;99.90
11908;DHT22;6014;47.690;9.130;2022-10-16T05:44:17;13.20;99.90
11908;DHT22;6014;47.690;9.130;2022-10-16T05:46:46;13.20;99.90
11908;DHT22;6014;47.690;9.130;2022-10-16T05:49:15;13.20;99.90
11908;DHT22;6014;47.690;9.130;2022-10-16T05:51:45;13.20;99.90
11908;DHT22;6014;47.690;9.130;2022-10-16T05:54:14;13.20;99.90
11908;DHT22;6014;47.690;9.130;2022-10-16T05:56:43;13.30;99.90
11908;DHT22;6014;47.690;9.130;2022-10-16T05:59:11;13.30;99.90
11908;DHT22;6014;47.690;9.130;2022-10-16T06:01:40;13.30;99.90
11908;DHT22;6014;47.690;9.130;2022-10-16T06:04:08;13.30;99.90
11908;DHT22;6014;47.690;9.130;2022-10-16T06:06:37;13.40;99.90
11908;DHT22;6014;47.690;9.130;2022-10-16T06:09:06;13.40;99.90
11908;DHT22;6014;47.690;9.130;2022-10-16T06:11:36;13.40;99.90
11908;DHT22;6014;47.690;9.130;2022-10-16T06:14:04;13.50;99.90
11908;DHT22;6014;47.690;9.130;2022-10-16T06:16:35;13.40;99.90
11908;DHT22;6014;47.690;9.130;2022-10-16T06:19:04;13.50;99.90
11908;DHT22;6014;47.690;9.130;2022-10-16T06:21:35;13.50;99.90
11908;DHT22;6014;47.690;9.130;2022-10-16T06:24:03;13.40;99.90
11908;DHT22;6014;47.690;9.130;2022-10-16T06:26:33;13.50;99.90
11908;DHT22;6014;47.690;9.130;2022-10-16T06:29:02;13.60;99.90
11908;DHT22;6014;47.690;9.130;2022-10-16T06:31:30;13.70;99.90
11908;DHT22;6014;47.690;9.130;2022-10-16T06:34:00;13.60;99.90
11908;DHT22;6014;47.690;9.130;2022-10-16T06:36:43;13.60;99.90
11908;DHT22;6014;47.690;9.130;2022-10-16T06:39:11;13.70;99.90
11908;DHT22;6014;47.690;9.130;2022-10-16T06:41:41;13.80;99.90
11908;DHT22;6014;47.690;9.130;2022-10-16T06:44:09;13.90;99.90
11908;DHT22;6014;47.690;9.130;2022-10-16T06:46:38;13.90;99.90
11908;DHT22;6014;47.690;9.130;2022-10-16T06:49:06;14.00;99.90
11908;DHT22;6014;47.690;9.130;2022-10-16T06:51:34;14.00;99.90
11908;DHT22;6014;47.690;9.130;2022-10-16T06:54:09;13.90;99.90
11908;DHT22;6014;47.690;9.130;2022-10-16T06:56:38;13.90;99.90
11908;DHT22;6014;47.690;9.130;2022-10-16T06:59:07;13.80;99.90
11908;DHT22;6014;47.690;9.130;2022-10-16T07:01:36;13.80;99.90
11908;DHT22;6014;47.690;9.130;2022-10-16T07:04:04;13.90;99.90
11908;DHT22;6014;47.690;9.130;2022-10-16T07:06:34;14.10;99.90
11908;DHT22;6014;47.690;9.130;2022-10-16T07:09:04;13.90;99.90
11908;DHT22;6014;47.690;9.130;2022-10-16T07:11:34;13.90;99.90
11908;DHT22;6014;47.690;9.130;2022-10-16T07:14:04;13.90;99.90
11908;DHT22;6014;47.690;9.130;2022-10-16T07:16:34;13.90;99.90
11908;DHT22;6014;47.690;9.130;2022-10-16T07:19:02;13.90;99.90
11908;DHT22;6014;47.690;9.130;2022-10-16T07:21:34;14.00;99.90
11908;DHT22;6014;47.690;9.130;2022-10-16T07:24:06;14.00;99.90
11908;DHT22;6014;47.690;9.130;2022-10-16T07:26:40;14.10;99.90
11908;DHT22;6014;47.690;9.130;2022-10-16T07:29:12;14.10;99.90
11908;DHT22;6014;47.690;9.130;2022-10-16T07:31:44;14.10;99.90
11908;DHT22;6014;47.690;9.130;2022-10-16T07:34:14;14.10;99.90
11908;DHT22;6014;47.690;9.130;2022-10-16T07:36:46;14.10;99.90
11908;DHT22;6014;47.690;9.130;2022-10-16T07:39:15;14.20;99.90
11908;DHT22;6014;47.690;9.130;2022-10-16T07:41:44;14.30;99.90
11908;DHT22;6014;47.690;9.130;2022-10-16T07:44:13;14.60;99.90
11908;DHT22;6014;47.690;9.130;2022-10-16T07:46:41;15.10;99.90
11908;DHT22;6014;47.690;9.130;2022-10-16T07:49:12;15.30;99.90
11908;DHT22;6014;47.690;9.130;2022-10-16T07:51:40;15.00;99.90
11908;DHT22;6014;47.690;9.130;2022-10-16T07:54:09;15.00;99.90
11908;DHT22;6014;47.690;9.130;2022-10-16T07:56:38;14.90;99.90
11908;DHT22;6014;47.690;9.130;2022-10-16T07:59:11;15.00;99.90
11908;DHT22;6014;47.690;9.130;2022-10-16T08:01:40;15.20;99.90
11908;DHT22;6014;47.690;9.130;2022-10-16T08:04:12;15.30;99.90
11908;DHT22;6014;47.690;9.130;2022-10-16T08:06:41;15.30;99.90
11908;DHT22;6014;47.690;9.130;2022-10-16T08:09:10;15.50;99.90
11908;DHT22;6014;47.690;9.130;2022-10-16T08:11:41;15.70;99.90
11908;DHT22;6014;47.690;9.130;2022-10-16T08:14:12;16.00;99.90
11908;DHT22;6014;47.690;9.130;2022-10-16T08:16:40;16.00;99.90
11908;DHT22;6014;47.690;9.130;2022-10-16T08:19:08;16.30;99.90
11908;DHT22;6014;47.690;9.130;2022-10-16T08:21:38;16.60;99.90
11908;DHT22;6014;47.690;9.130;2022-10-16T08:24:06;16.40;99.90
11908;DHT22;6014;47.690;9.130;2022-10-16T08:26:35;16.60;99.90
11908;DHT22;6014;47.690;9.130;2022-10-16T08:29:07;16.60;99.90
11908;DHT22;6014;47.690;9.130;2022-10-16T08:31:39;16.70;99.90
11908;DHT22;6014;47.690;9.130;2022-10-16T08:34:08;17.50;99.90
11908;DHT22;6014;47.690;9.130;2022-10-16T08:36:41;17.60;99.90
11908;DHT22;6014;47.690;9.130;2022-10-16T08:39:10;17.70;99.90
11908;DHT22;6014;47.690;9.130;2022-10-16T08:42:00;17.10;99.90
11908;DHT22;6014;47.690;9.130;2022-10-16T08:45:03;16.60;99.90
11908;DHT22;6014;47.690;9.130;2022-10-16T08:47:45;16.60;99.90
11908;DHT22;6014;47.690;9.130;2022-10-16T08:50:22;16.30;99.90
11908;DHT22;6014;47.690;9.130;2022-10-16T08:52:55;16.10;99.90
11908;DHT22;6014;47.690;9.130;2022-10-16T08:55:30;15.80;99.90
11908;DHT22;6014;47.690;9.130;2022-10-16T08:58:01;16.40;99.90
11908;DHT22;6014;47.690;9.130;2022-10-16T09:00:30;16.60;99.90
11908;DHT22;6014;47.690;9.130;2022-10-16T09:03:04;16.90;99.90
11908;DHT22;6014;47.690;9.130;2022-10-16T09:05:52;16.80;99.90
11908;DHT22;6014;47.690;9.130;2022-10-16T09:08:30;16.90;99.90
11908;DHT22;6014;47.690;9.130;2022-10-16T09:11:08;17.10;99.90
11908;DHT22;6014;47.690;9.130;2022-10-16T09:13:50;17.00;99.90
11908;DHT22;6014;47.690;9.130;2022-10-16T09:16:25;16.60;99.90
11908;DHT22;6014;47.690;9.130;2022-10-16T09:19:02;16.60;99.90
11908;DHT22;6014;47.690;9.130;2022-10-16T09:21:40;16.80;99.90
11908;DHT22;6014;47.690;9.130;2022-10-16T09:24:14;16.80;99.90
11908;DHT22;6014;47.690;9.130;2022-10-16T09:26:43;17.20;99.90
11908;DHT22;6014;47.690;9.130;2022-10-16T09:29:13;17.40;99.90
11908;DHT22;6014;47.690;9.130;2022-10-16T09:31:42;17.80;99.90
11908;DHT22;6014;47.690;9.130;2022-10-16T09:34:20;17.90;99.90
11908;DHT22;6014;47.690;9.130;2022-10-16T09:36:54;18.00;99.90
11908;DHT22;6014;47.690;9.130;2022-10-16T09:39:25;18.00;99.90
11908;DHT22;6014;47.690;9.130;2022-10-16T09:41:55;18.10;99.90
11908;DHT22;6014;47.690;9.130;2022-10-16T09:44:32;18.10;99.90
11908;DHT22;6014;47.690;9.130;2022-10-16T09:47:02;18.20;99.90
11908;DHT22;6014;47.690;9.130;2022-10-16T09:49:32;18.30;99.90
11908;DHT22;6014;47.690;9.130;2022-10-16T09:52:06;18.50;99.90
11908;DHT22;6014;47.690;9.130;2022-10-16T09:54:50;18.80;99.90
11908;DHT22;6014;47.690;9.130;2022-10-16T09:57:20;19.30;99.90
11908;DHT22;6014;47.690;9.130;2022-10-16T09:59:51;19.60;99.90
11908;DHT22;6014;47.690;9.130;2022-10-16T10:02:30;19.60;99.90
11908;DHT22;6014;47.690;9.130;2022-10-16T10:05:04;19.50;99.90
11908;DHT22;6014;47.690;9.130;2022-10-16T10:07:39;19.60;99.90
11908;DHT22;6014;47.690;9.130;2022-10-16T10:10:21;20.00;99.90
11908;DHT22;6014;47.690;9.130;2022-10-16T10:12:51;19.70;99.90
11908;DHT22;6014;47.690;9.130;2022-10-16T10:15:20;19.70;99.90
11908;DHT22;6014;47.690;9.130;2022-10-16T10:17:51;20.00;99.90
11908;DHT22;6014;47.690;9.130;2022-10-16T10:20:26;19.70;99.90
11908;DHT22;6014;47.690;9.130;2022-10-16T10:23:19;20.00;99.90
11908;DHT22;6014;47.690;9.130;2022-10-16T10:25:55;20.00;99.90
11908;DHT22;6014;47.690;9.130;2022-10-16T10:28:52;20.10;99.90
11908;DHT22;6014;47.690;9.130;2022-10-16T10:31:29;20.40;99.90
11908;DHT22;6014;47.690;9.130;2022-10-16T10:34:23;20.60;99.90
11908;DHT22;6014;47.690;9.130;2022-10-16T10:37:02;21.00;99.90
11908;DHT22;6014;47.690;9.130;2022-10-16T10:39:38;21.00;99.90
11908;DHT22;6014;47.690;9.130;2022-10-16T10:42:19;21.10;99.90
11908;DHT22;6014;47.690;9.130;2022-10-16T10:44:59;21.20;99.90
11908;DHT22;6014;47.690;9.130;2022-10-16T10:47:46;21.50;99.90
11908;DHT22;6014;47.690;9.130;2022-10-16T10:50:24;21.60;99.90
11908;DHT22;6014;47.690;9.130;2022-10-16T10:52:59;21.60;99.90
11908;DHT22;6014;47.690;9.130;2022-10-16T10:55:39;21.80;99.90
11908;DHT22;6014;47.690;9.130;2022-10-16T10:58:29;22.30;99.90
11908;DHT22;6014;47.690;9.130;2022-10-16T11:01:09;22.40;99.90
11908;DHT22;6014;47.690;9.130;2022-10-16T11:03:53;22.60;99.90
11908;DHT22;6014;47.690;9.130;2022-10-16T11:06:42;22.80;99.90
11908;DHT22;6014;47.690;9.130;2022-10-16T11:09:16;22.90;99.90
11908;DHT22;6014;47.690;9.130;2022-10-16T11:11:49;23.20;99.90
11908;DHT22;6014;47.690;9.130;2022-10-16T11:14:24;23.20;99.90
11908;DHT22;6014;47.690;9.130;2022-10-16T11:16:59;22.90;99.90
11908;DHT22;6014;47.690;9.130;2022-10-16T11:19:39;22.90;99.90
11908;DHT22;6014;47.690;9.130;2022-10-16T11:22:15;22.90;99.90
11908;DHT22;6014;47.690;9.130;2022-10-16T11:24:49;23.40;99.90
11908;DHT22;6014;47.690;9.130;2022-10-16T11:27:28;22.80;99.90
11908;DHT22;6014;47.690;9.130;2022-10-16T11:30:12;22.70;99.90
11908;DHT22;6014;47.690;9.130;2022-10-16T11:32:54;23.20;99.90
11908;DHT22;6014;47.690;9.130;2022-10-16T11:35:37;23.20;99.90
11908;DHT22;6014;47.690;9.130;2022-10-16T11:38:14;23.20;99.90
11908;DHT22;6014;47.690;9.130;2022-10-16T11:40:47;23.10;99.90
11908;DHT22;6014;47.690;9.130;2022-10-16T11:43:24;23.10;99.90
11908;DHT22;6014;47.690;9.130;2022-10-16T11:46:00;23.10;99.90
11908;DHT22;6014;47.690;9.130;2022-10-16T11:48:39;23.10;99.90
11908;DHT22;6014;47.690;9.130;2022-10-16T11:51:20;23.30;99.90
11908;DHT22;6014;47.690;9.130;2022-10-16T11:53:57;22.80;99.90
11908;DHT22;6014;47.690;9.130;2022-10-16T11:56:30;22.60;99.90
11908;DHT22;6014;47.690;9.130;2022-10-16T11:59:02;22.40;99.90
11908;DHT22;6014;47.690;9.130;2022-10-16T12:01:40;22.70;99.90
11908;DHT22;6014;47.690;9.130;2022-10-16T12:04:18;22.60;99.90
11908;DHT22;6014;47.690;9.130;2022-10-16T12:06:58;22.50;99.90
11908;DHT22;6014;47.690;9.130;2022-10-16T12:09:32;22.20;99.90
11908;DHT22;6014;47.690;9.130;2022-10-16T12:12:01;22.10;99.90
11908;DHT22;6014;47.690;9.130;2022-10-16T12:14:38;22.10;99.90
11908;DHT22;6014;47.690;9.130;2022-10-16T12:17:35;21.90;99.90
11908;DHT22;6014;47.690;9.130;2022-10-16T12:20:22;22.00;99.90
11908;DHT22;6014;47.690;9.130;2022-10-16T12:22:55;22.00;99.90
11908;DHT22;6014;47.690;9.130;2022-10-16T12:25:26;21.90;99.90
11908;DHT22;6014;47.690;9.130;2022-10-16T12:28:01;21.80;99.90
11908;DHT22;6014;47.690;9.130;2022-10-16T12:30:32;21.90;99.90
11908;DHT22;6014;47.690;9.130;2022-10-16T12:33:21;22.20;99.90
11908;DHT22;6014;47.690;9.130;2022-10-16T12:35:51;22.20;99.90
11908;DHT22;6014;47.690;9.130;2022-10-16T12:38:24;22.40;99.90
11908;DHT22;6014;47.690;9.130;2022-10-16T12:40:58;22.80;99.90
11908;DHT22;6014;47.690;9.130;2022-10-16T12:43:36;23.20;99.90
11908;DHT22;6014;47.690;9.130;2022-10-16T12:46:39;23.70;99.90
11908;DHT22;6014;47.690;9.130;2022-10-16T12:49:31;24.40;99.50
11908;DHT22;6014;47.690;9.130;2022-10-16T12:52:02;24.20;97.40
11908;DHT22;6014;47.690;9.130;2022-10-16T12:54:36;24.20;97.90
11908;DHT22;6014;47.690;9.130;2022-10-16T12:57:24;24.30;98.00
11908;DHT22;6014;47.690;9.130;2022-10-16T13:00:13;24.20;99.70
11908;DHT22;6014;47.690;9.130;2022-10-16T13:03:22;24.10;99.90
11908;DHT22;6014;47.690;9.130;2022-10-16T13:06:08;23.80;98.40
11908;DHT22;6014;47.690;9.130;2022-10-16T13:09:08;24.00;98.80
11908;DHT22;6014;47.690;9.130;2022-10-16T13:12:03;24.00;99.90
11908;DHT22;6014;47.690;9.130;2022-10-16T13:14:56;23.80;96.70
11908;DHT22;6014;47.690;9.130;2022-10-16T13:17:37;23.90;97.70
11908;DHT22;6014;47.690;9.130;2022-10-16T13:20:18;24.10;97.10
11908;DHT22;6014;47.690;9.130;2022-10-16T13:22:56;24.20;98.70
11908;DHT22;6014;47.690;9.130;2022-10-16T13:25:42;24.40;97.60
11908;DHT22;6014;47.690;9.130;2022-10-16T13:28:21;24.10;96.70
11908;DHT22;6014;47.690;9.130;2022-10-16T13:30:52;23.80;97.30
11908;DHT22;6014;47.690;9.130;2022-10-16T13:33:30;23.70;98.80
11908;DHT22;6014;47.690;9.130;2022-10-16T13:36:02;23.90;98.60
11908;DHT22;6014;47.690;9.130;2022-10-16T13:38:34;23.80;98.70
11908;DHT22;6014;47.690;9.130;2022-10-16T13:41:05;23.80;98.10
11908;DHT22;6014;47.690;9.130;2022-10-16T13:43:42;24.20;98.10
11908;DHT22;6014;47.690;9.130;2022-10-16T13:46:14;24.40;97.20
11908;DHT22;6014;47.690;9.130;2022-10-16T13:48:44;24.70;97.20
11908;DHT22;6014;47.690;9.130;2022-10-16T13:51:25;24.60;95.90
11908;DHT22;6014;47.690;9.130;2022-10-16T13:53:55;24.90;96.30
11908;DHT22;6014;47.690;9.130;2022-10-16T13:56:29;24.90;96.40
11908;DHT22;6014;47.690;9.130;2022-10-16T13:58:59;24.90;96.80
11908;DHT22;6014;47.690;9.130;2022-10-16T14:01:29;24.80;97.40
11908;DHT22;6014;47.690;9.130;2022-10-16T14:04:03;24.50;97.90
11908;DHT22;6014;47.690;9.130;2022-10-16T14:06:33;24.80;97.80
11908;DHT22;6014;47.690;9.130;2022-10-16T14:09:07;24.70;97.30
11908;DHT22;6014;47.690;9.130;2022-10-16T14:11:51;24.80;96.60
11908;DHT22;6014;47.690;9.130;2022-10-16T14:14:22;24.30;93.40
11908;DHT22;6014;47.690;9.130;2022-10-16T14:16:51;24.50;92.20
11908;DHT22;6014;47.690;9.130;2022-10-16T14:19:22;24.40;92.80
11908;DHT22;6014;47.690;9.130;2022-10-16T14:21:53;24.50;95.60
11908;DHT22;6014;47.690;9.130;2022-10-16T14:24:31;24.60;96.50
11908;DHT22;6014;47.690;9.130;2022-10-16T14:27:00;24.80;96.00
11908;DHT22;6014;47.690;9.130;2022-10-16T14:29:30;24.50;97.50
11908;DHT22;6014;47.690;9.130;2022-10-16T14:32:00;24.20;99.80
11908;DHT22;6014;47.690;9.130;2022-10-16T14:34:31;24.30;98.70
11908;DHT22;6014;47.690;9.130;2022-10-16T14:37:05;24.30;99.50
11908;DHT22;6014;47.690;9.130;2022-10-16T14:39:37;24.10;97.80
11908;DHT22;6014;47.690;9.130;2022-10-16T14:42:14;24.20;98.00
11908;DHT22;6014;47.690;9.130;2022-10-16T14:44:44;24.10;98.50
11908;DHT22;6014;47.690;9.130;2022-10-16T14:47:15;23.90;99.90
11908;DHT22;6014;47.690;9.130;2022-10-16T14:49:49;23.70;99.90
11908;DHT22;6014;47.690;9.130;2022-10-16T14:52:17;23.70;99.90
11908;DHT22;6014;47.690;9.130;2022-10-16T14:54:49;23.50;99.90
11908;DHT22;6014;47.690;9.130;2022-10-16T14:57:24;23.40;99.90
11908;DHT22;6014;47.690;9.130;2022-10-16T14:59:55;23.20;99.90
11908;DHT22;6014;47.690;9.130;2022-10-16T15:02:28;23.20;99.90
11908;DHT22;6014;47.690;9.130;2022-10-16T15:04:58;23.10;99.90
11908;DHT22;6014;47.690;9.130;2022-10-16T15:07:40;22.80;99.90
11908;DHT22;6014;47.690;9.130;2022-10-16T15:10:10;23.00;99.90
11908;DHT22;6014;47.690;9.130;2022-10-16T15:12:39;22.90;99.90
11908;DHT22;6014;47.690;9.130;2022-10-16T15:15:25;22.80;99.90
11908;DHT22;6014;47.690;9.130;2022-10-16T15:17:57;23.00;99.90
11908;DHT22;6014;47.690;9.130;2022-10-16T15:20:28;23.20;99.90
11908;DHT22;6014;47.690;9.130;2022-10-16T15:22:57;23.60;99.90
11908;DHT22;6014;47.690;9.130;2022-10-16T15:25:36;23.70;99.90
11908;DHT22;6014;47.690;9.130;2022-10-16T15:28:08;23.60;99.90
11908;DHT22;6014;47.690;9.130;2022-10-16T15:30:37;23.80;99.90
11908;DHT22;6014;47.690;9.130;2022-10-16T15:33:12;24.10;99.90
11908;DHT22;6014;47.690;9.130;2022-10-16T15:35:41;24.20;99.90
11908;DHT22;6014;47.690;9.130;2022-10-16T15:38:11;24.00;99.90
11908;DHT22;6014;47.690;9.130;2022-10-16T15:40:41;23.70;99.90
11908;DHT22;6014;47.690;9.130;2022-10-16T15:43:10;23.40;99.90
11908;DHT22;6014;47.690;9.130;2022-10-16T15:45:38;22.90;99.90
11908;DHT22;6014;47.690;9.130;2022-10-16T15:48:10;22.30;99.90
11908;DHT22;6014;47.690;9.130;2022-10-16T15:50:40;22.00;99.90
11908;DHT22;6014;47.690;9.130;2022-10-16T15:53:10;21.60;99.90
11908;DHT22;6014;47.690;9.130;2022-10-16T15:55:38;21.40;99.90
11908;DHT22;6014;47.690;9.130;2022-10-16T15:58:07;21.20;99.90
11908;DHT22;6014;47.690;9.130;2022-10-16T16:00:36;21.10;99.90
11908;DHT22;6014;47.690;9.130;2022-10-16T16:03:04;20.80;99.90
11908;DHT22;6014;47.690;9.130;2022-10-16T16:05:33;20.70;99.90
11908;DHT22;6014;47.690;9.130;2022-10-16T16:08:11;20.70;99.90
11908;DHT22;6014;47.690;9.130;2022-10-16T16:10:39;20.50;99.90
11908;DHT22;6014;47.690;9.130;2022-10-16T16:13:09;20.10;99.90
11908;DHT22;6014;47.690;9.130;2022-10-16T16:15:38;19.90;99.90
11908;DHT22;6014;47.690;9.130;2022-10-16T16:18:07;19.60;99.90
11908;DHT22;6014;47.690;9.130;2022-10-16T16:20:36;19.40;99.90
11908;DHT22;6014;47.690;9.130;2022-10-16T16:23:04;19.20;99.90